sensor_id;sensor_type;location;lat;lon;timestamp;P1;durP1;ratioP1;P2;durP2;ratioP2
22470;SDS011;11402;51.374;6.594;2023-04-01T00:02:07;6.60;;;1.50;;
22470;SDS011;11402;51.374;6.594;2023-04-01T00:04:33;5.25;;;1.20;;
22470;SDS011;11402;51.374;6.594;2023-04-01T00:06:58;7.63;;;1.30;;
22470;SDS011;11402;51.374;6.594;2023-04-01T00:09:25;4.43;;;1.35;;
22470;SDS011;11402;51.374;6.594;2023-04-01T00:11:50;6.82;;;1.55;;
22470;SDS011;11402;51.374;6.594;2023-04-01T00:14:16;4.82;;;1.33;;
22470;SDS011;11402;51.374;6.594;2023-04-01T00:16:42;6.13;;;1.45;;
22470;SDS011;11402;51.374;6.594;2023-04-01T00:19:07;4.78;;;1.48;;
22470;SDS011;11402;51.374;6.594;2023-04-01T00:21:33;5.40;;;1.20;;
22470;SDS011;11402;51.374;6.594;2023-04-01T00:23:59;5.93;;;1.30;;
22470;SDS011;11402;51.374;6.594;2023-04-01T00:26:25;4.63;;;1.15;;
22470;SDS011;11402;51.374;6.594;2023-04-01T00:28:51;2.97;;;1.08;;
22470;SDS011;11402;51.374;6.594;2023-04-01T00:31:17;6.25;;;1.10;;
22470;SDS011;11402;51.374;6.594;2023-04-01T00:33:42;4.63;;;0.93;;
22470;SDS011;11402;51.374;6.594;2023-04-01T00:36:12;4.68;;;1.00;;
22470;SDS011;11402;51.374;6.594;2023-04-01T00:38:39;4.35;;;1.45;;
22470;SDS011;11402;51.374;6.594;2023-04-01T00:41:06;5.10;;;1.30;;
22470;SDS011;11402;51.374;6.594;2023-04-01T00:43:32;4.68;;;1.00;;
22470;SDS011;11402;51.374;6.594;2023-04-01T00:45:58;4.20;;;1.33;;
22470;SDS011;11402;51.374;6.594;2023-04-01T00:48:28;3.72;;;1.17;;
22470;SDS011;11402;51.374;6.594;2023-04-01T00:51:06;2.03;;;1.10;;
22470;SDS011;11402;51.374;6.594;2023-04-01T00:53:36;4.90;;;1.30;;
22470;SDS011;11402;51.374;6.594;2023-04-01T00:56:06;3.53;;;1.20;;
22470;SDS011;11402;51.374;6.594;2023-04-01T00:58:37;4.18;;;1.13;;
22470;SDS011;11402;51.374;6.594;2023-04-01T01:01:06;4.55;;;1.15;;
22470;SDS011;11402;51.374;6.594;2023-04-01T01:03:33;4.43;;;0.98;;
22470;SDS011;11402;51.374;6.594;2023-04-01T01:11:42;2.80;;;0.90;;
22470;SDS011;11402;51.374;6.594;2023-04-01T01:34:22;4.82;;;1.10;;
22470;SDS011;11402;51.374;6.594;2023-04-01T01:37:00;7.93;;;1.30;;
22470;SDS011;11402;51.374;6.594;2023-04-01T01:39:30;3.88;;;0.90;;
22470;SDS011;11402;51.374;6.594;2023-04-01T01:42:01;3.47;;;0.93;;
22470;SDS011;11402;51.374;6.594;2023-04-01T01:44:30;1.83;;;1.00;;
22470;SDS011;11402;51.374;6.594;2023-04-01T01:46:58;2.63;;;1.00;;
22470;SDS011;11402;51.374;6.594;2023-04-01T01:49:25;2.95;;;0.90;;
22470;SDS011;11402;51.374;6.594;2023-04-01T01:51:52;2.58;;;0.90;;
22470;SDS011;11402;51.374;6.594;2023-04-01T01:54:18;3.92;;;1.00;;
22470;SDS011;11402;51.374;6.594;2023-04-01T01:56:45;3.85;;;0.75;;
22470;SDS011;11402;51.374;6.594;2023-04-01T01:59:14;4.45;;;0.98;;
22470;SDS011;11402;51.374;6.594;2023-04-01T02:01:42;1.02;;;0.70;;
22470;SDS011;11402;51.374;6.594;2023-04-01T02:04:10;3.08;;;0.85;;
22470;SDS011;11402;51.374;6.594;2023-04-01T02:06:39;2.92;;;0.75;;
22470;SDS011;11402;51.374;6.594;2023-04-01T02:09:12;3.33;;;1.13;;
22470;SDS011;11402;51.374;6.594;2023-04-01T02:14:16;1.83;;;0.90;;
22470;SDS011;11402;51.374;6.594;2023-04-01T02:16:51;4.83;;;1.33;;
22470;SDS011;11402;51.374;6.594;2023-04-01T02:19:26;4.15;;;1.33;;
22470;SDS011;11402;51.374;6.594;2023-04-01T02:21:58;2.67;;;1.08;;
22470;SDS011;11402;51.374;6.594;2023-04-01T02:24:26;4.60;;;1.30;;
22470;SDS011;11402;51.374;6.594;2023-04-01T02:26:55;3.35;;;1.30;;
22470;SDS011;11402;51.374;6.594;2023-04-01T02:29:21;4.60;;;1.40;;
22470;SDS011;11402;51.374;6.594;2023-04-01T02:31:50;4.47;;;1.40;;
22470;SDS011;11402;51.374;6.594;2023-04-01T02:34:16;4.50;;;1.10;;
22470;SDS011;11402;51.374;6.594;2023-04-01T02:36:42;4.22;;;1.50;;
22470;SDS011;11402;51.374;6.594;2023-04-01T02:39:08;4.68;;;1.50;;
22470;SDS011;11402;51.374;6.594;2023-04-01T02:41:40;6.18;;;2.05;;
22470;SDS011;11402;51.374;6.594;2023-04-01T02:44:07;4.40;;;1.67;;
22470;SDS011;11402;51.374;6.594;2023-04-01T02:46:34;4.85;;;1.70;;
22470;SDS011;11402;51.374;6.594;2023-04-01T02:49:00;4.30;;;1.60;;
22470;SDS011;11402;51.374;6.594;2023-04-01T02:51:26;4.75;;;1.80;;
22470;SDS011;11402;51.374;6.594;2023-04-01T02:53:52;4.43;;;1.75;;
22470;SDS011;11402;51.374;6.594;2023-04-01T02:56:17;3.55;;;1.60;;
22470;SDS011;11402;51.374;6.594;2023-04-01T02:58:44;4.68;;;1.83;;
22470;SDS011;11402;51.374;6.594;2023-04-01T03:01:10;4.43;;;1.60;;
22470;SDS011;11402;51.374;6.594;2023-04-01T03:03:35;3.53;;;1.50;;
22470;SDS011;11402;51.374;6.594;2023-04-01T03:06:08;3.00;;;1.38;;
22470;SDS011;11402;51.374;6.594;2023-04-01T03:08:35;3.65;;;1.50;;
22470;SDS011;11402;51.374;6.594;2023-04-01T03:11:01;4.15;;;1.40;;
22470;SDS011;11402;51.374;6.594;2023-04-01T03:13:26;5.68;;;1.70;;
22470;SDS011;11402;51.374;6.594;2023-04-01T03:15:52;3.05;;;1.30;;
22470;SDS011;11402;51.374;6.594;2023-04-01T03:18:18;3.72;;;1.45;;
22470;SDS011;11402;51.374;6.594;2023-04-01T03:20:43;3.80;;;1.30;;
22470;SDS011;11402;51.374;6.594;2023-04-01T03:23:09;3.20;;;1.38;;
22470;SDS011;11402;51.374;6.594;2023-04-01T03:25:34;3.38;;;1.58;;
22470;SDS011;11402;51.374;6.594;2023-04-01T03:28:00;2.20;;;1.38;;
22470;SDS011;11402;51.374;6.594;2023-04-01T03:30:26;2.35;;;1.50;;
22470;SDS011;11402;51.374;6.594;2023-04-01T03:32:52;4.85;;;1.80;;
22470;SDS011;11402;51.374;6.594;2023-04-01T03:35:18;5.05;;;1.50;;
22470;SDS011;11402;51.374;6.594;2023-04-01T03:37:44;3.03;;;1.40;;
22470;SDS011;11402;51.374;6.594;2023-04-01T03:40:10;3.03;;;1.65;;
22470;SDS011;11402;51.374;6.594;2023-04-01T03:42:36;3.05;;;1.75;;
22470;SDS011;11402;51.374;6.594;2023-04-01T03:45:02;3.70;;;1.70;;
22470;SDS011;11402;51.374;6.594;2023-04-01T03:47:28;2.83;;;1.77;;
22470;SDS011;11402;51.374;6.594;2023-04-01T03:49:54;3.63;;;1.80;;
22470;SDS011;11402;51.374;6.594;2023-04-01T03:52:20;5.03;;;1.80;;
22470;SDS011;11402;51.374;6.594;2023-04-01T03:54:45;3.25;;;1.70;;
22470;SDS011;11402;51.374;6.594;2023-04-01T03:57:11;3.92;;;1.60;;
22470;SDS011;11402;51.374;6.594;2023-04-01T03:59:37;3.13;;;1.58;;
22470;SDS011;11402;51.374;6.594;2023-04-01T04:02:03;2.67;;;1.30;;
22470;SDS011;11402;51.374;6.594;2023-04-01T04:04:29;2.55;;;1.40;;
22470;SDS011;11402;51.374;6.594;2023-04-01T04:06:55;2.30;;;1.42;;
22470;SDS011;11402;51.374;6.594;2023-04-01T04:09:21;2.40;;;1.50;;
22470;SDS011;11402;51.374;6.594;2023-04-01T04:11:47;3.72;;;1.95;;
22470;SDS011;11402;51.374;6.594;2023-04-01T04:14:13;3.20;;;1.70;;
22470;SDS011;11402;51.374;6.594;2023-04-01T04:16:39;3.78;;;1.88;;
22470;SDS011;11402;51.374;6.594;2023-04-01T04:19:04;2.70;;;1.80;;
22470;SDS011;11402;51.374;6.594;2023-04-01T04:21:30;4.88;;;1.88;;
22470;SDS011;11402;51.374;6.594;2023-04-01T04:23:56;3.83;;;2.00;;
22470;SDS011;11402;51.374;6.594;2023-04-01T04:26:21;3.47;;;1.95;;
22470;SDS011;11402;51.374;6.594;2023-04-01T04:28:47;3.45;;;2.10;;
22470;SDS011;11402;51.374;6.594;2023-04-01T04:31:17;3.08;;;2.25;;
22470;SDS011;11402;51.374;6.594;2023-04-01T04:33:45;3.83;;;2.40;;
22470;SDS011;11402;51.374;6.594;2023-04-01T04:36:10;3.08;;;2.20;;
22470;SDS011;11402;51.374;6.594;2023-04-01T04:38:36;3.80;;;2.63;;
22470;SDS011;11402;51.374;6.594;2023-04-01T04:41:01;3.08;;;2.13;;
22470;SDS011;11402;51.374;6.594;2023-04-01T04:43:27;2.78;;;2.22;;
22470;SDS011;11402;51.374;6.594;2023-04-01T04:45:53;6.53;;;2.55;;
22470;SDS011;11402;51.374;6.594;2023-04-01T04:48:18;5.82;;;2.90;;
22470;SDS011;11402;51.374;6.594;2023-04-01T04:50:48;5.03;;;2.45;;
22470;SDS011;11402;51.374;6.594;2023-04-01T04:53:15;3.35;;;2.30;;
22470;SDS011;11402;51.374;6.594;2023-04-01T04:55:43;2.78;;;2.00;;
22470;SDS011;11402;51.374;6.594;2023-04-01T04:58:12;3.10;;;1.95;;
22470;SDS011;11402;51.374;6.594;2023-04-01T05:00:37;3.13;;;2.60;;
22470;SDS011;11402;51.374;6.594;2023-04-01T05:03:03;3.38;;;2.42;;
22470;SDS011;11402;51.374;6.594;2023-04-01T05:05:29;3.65;;;2.95;;
22470;SDS011;11402;51.374;6.594;2023-04-01T05:07:54;4.47;;;3.17;;
22470;SDS011;11402;51.374;6.594;2023-04-01T05:10:20;6.13;;;2.80;;
22470;SDS011;11402;51.374;6.594;2023-04-01T05:12:46;3.88;;;3.25;;
22470;SDS011;11402;51.374;6.594;2023-04-01T05:15:11;6.00;;;3.45;;
22470;SDS011;11402;51.374;6.594;2023-04-01T05:17:37;5.95;;;4.38;;
22470;SDS011;11402;51.374;6.594;2023-04-01T05:20:03;5.85;;;4.40;;
22470;SDS011;11402;51.374;6.594;2023-04-01T05:22:29;5.72;;;4.25;;
22470;SDS011;11402;51.374;6.594;2023-04-01T05:24:54;5.80;;;4.85;;
22470;SDS011;11402;51.374;6.594;2023-04-01T05:27:20;6.13;;;5.28;;
22470;SDS011;11402;51.374;6.594;2023-04-01T05:29:46;9.30;;;5.70;;
22470;SDS011;11402;51.374;6.594;2023-04-01T05:32:12;8.43;;;5.20;;
22470;SDS011;11402;51.374;6.594;2023-04-01T05:34:37;6.25;;;5.57;;
22470;SDS011;11402;51.374;6.594;2023-04-01T05:37:03;6.18;;;5.15;;
22470;SDS011;11402;51.374;6.594;2023-04-01T05:39:28;6.03;;;5.43;;
22470;SDS011;11402;51.374;6.594;2023-04-01T05:41:54;7.78;;;6.20;;
22470;SDS011;11402;51.374;6.594;2023-04-01T05:44:19;7.55;;;6.18;;
22470;SDS011;11402;51.374;6.594;2023-04-01T05:46:45;7.18;;;6.05;;
22470;SDS011;11402;51.374;6.594;2023-04-01T05:49:11;10.45;;;6.75;;
22470;SDS011;11402;51.374;6.594;2023-04-01T05:51:37;8.13;;;6.53;;
22470;SDS011;11402;51.374;6.594;2023-04-01T05:54:03;8.15;;;6.65;;
22470;SDS011;11402;51.374;6.594;2023-04-01T05:56:30;7.60;;;6.40;;
22470;SDS011;11402;51.374;6.594;2023-04-01T05:58:55;9.82;;;7.70;;
22470;SDS011;11402;51.374;6.594;2023-04-01T06:01:21;9.02;;;6.93;;
22470;SDS011;11402;51.374;6.594;2023-04-01T06:03:46;10.20;;;7.30;;
22470;SDS011;11402;51.374;6.594;2023-04-01T06:06:18;7.82;;;6.85;;
22470;SDS011;11402;51.374;6.594;2023-04-01T06:08:49;7.10;;;6.38;;
22470;SDS011;11402;51.374;6.594;2023-04-01T06:11:19;8.48;;;7.20;;
22470;SDS011;11402;51.374;6.594;2023-04-01T06:16:47;8.48;;;6.43;;
22470;SDS011;11402;51.374;6.594;2023-04-01T06:22:58;6.90;;;6.20;;
22470;SDS011;11402;51.374;6.594;2023-04-01T06:25:49;8.68;;;6.13;;
22470;SDS011;11402;51.374;6.594;2023-04-01T06:28:42;9.10;;;6.68;;
22470;SDS011;11402;51.374;6.594;2023-04-01T06:37:13;9.02;;;6.60;;
22470;SDS011;11402;51.374;6.594;2023-04-01T06:40:12;9.25;;;6.75;;
22470;SDS011;11402;51.374;6.594;2023-04-01T06:43:05;7.57;;;6.78;;
22470;SDS011;11402;51.374;6.594;2023-04-01T06:45:46;6.22;;;5.50;;
22470;SDS011;11402;51.374;6.594;2023-04-01T06:51:54;7.30;;;5.55;;
22470;SDS011;11402;51.374;6.594;2023-04-01T06:54:40;6.35;;;5.57;;
22470;SDS011;11402;51.374;6.594;2023-04-01T06:57:29;7.13;;;5.60;;
22470;SDS011;11402;51.374;6.594;2023-04-01T07:00:04;7.47;;;5.47;;
22470;SDS011;11402;51.374;6.594;2023-04-01T07:02:53;7.47;;;5.85;;
22470;SDS011;11402;51.374;6.594;2023-04-01T07:05:26;6.40;;;5.80;;
22470;SDS011;11402;51.374;6.594;2023-04-01T07:07:57;7.95;;;6.30;;
22470;SDS011;11402;51.374;6.594;2023-04-01T07:10:43;7.70;;;6.90;;
22470;SDS011;11402;51.374;6.594;2023-04-01T07:13:22;7.32;;;6.53;;
22470;SDS011;11402;51.374;6.594;2023-04-01T07:18:32;7.95;;;6.65;;
22470;SDS011;11402;51.374;6.594;2023-04-01T07:21:04;7.43;;;6.63;;
22470;SDS011;11402;51.374;6.594;2023-04-01T07:23:39;6.35;;;5.72;;
22470;SDS011;11402;51.374;6.594;2023-04-01T07:26:20;6.45;;;5.85;;
22470;SDS011;11402;51.374;6.594;2023-04-01T07:28:48;6.72;;;6.03;;
22470;SDS011;11402;51.374;6.594;2023-04-01T07:31:20;6.00;;;5.40;;
22470;SDS011;11402;51.374;6.594;2023-04-01T07:42:48;8.00;;;6.70;;
22470;SDS011;11402;51.374;6.594;2023-04-01T07:45:31;8.25;;;7.45;;
22470;SDS011;11402;51.374;6.594;2023-04-01T07:51:03;9.48;;;8.48;;
22470;SDS011;11402;51.374;6.594;2023-04-01T07:53:53;9.82;;;8.70;;
22470;SDS011;11402;51.374;6.594;2023-04-01T07:56:40;11.15;;;9.07;;
22470;SDS011;11402;51.374;6.594;2023-04-01T07:59:25;10.57;;;9.27;;
22470;SDS011;11402;51.374;6.594;2023-04-01T08:07:47;8.38;;;7.57;;
22470;SDS011;11402;51.374;6.594;2023-04-01T08:10:25;9.88;;;8.02;;
22470;SDS011;11402;51.374;6.594;2023-04-01T08:13:04;8.80;;;7.20;;
22470;SDS011;11402;51.374;6.594;2023-04-01T08:16:06;8.55;;;7.45;;
22470;SDS011;11402;51.374;6.594;2023-04-01T08:18:53;7.95;;;6.82;;
22470;SDS011;11402;51.374;6.594;2023-04-01T08:21:32;8.43;;;7.63;;
22470;SDS011;11402;51.374;6.594;2023-04-01T08:24:11;9.82;;;7.65;;
22470;SDS011;11402;51.374;6.594;2023-04-01T08:26:53;8.07;;;6.85;;
22470;SDS011;11402;51.374;6.594;2023-04-01T08:29:46;8.40;;;7.18;;
22470;SDS011;11402;51.374;6.594;2023-04-01T08:32:17;7.93;;;7.13;;
22470;SDS011;11402;51.374;6.594;2023-04-01T08:34:51;9.88;;;8.05;;
22470;SDS011;11402;51.374;6.594;2023-04-01T08:37:32;9.80;;;7.25;;
22470;SDS011;11402;51.374;6.594;2023-04-01T08:40:09;9.20;;;7.32;;
22470;SDS011;11402;51.374;6.594;2023-04-01T08:57:15;14.68;;;10.43;;
22470;SDS011;11402;51.374;6.594;2023-04-01T09:08:31;15.15;;;11.25;;
22470;SDS011;11402;51.374;6.594;2023-04-01T09:28:20;19.15;;;13.02;;
22470;SDS011;11402;51.374;6.594;2023-04-01T09:31:05;17.65;;;13.18;;
22470;SDS011;11402;51.374;6.594;2023-04-01T09:36:43;22.45;;;14.23;;
22470;SDS011;11402;51.374;6.594;2023-04-01T09:39:37;19.05;;;13.65;;
22470;SDS011;11402;51.374;6.594;2023-04-01T09:42:21;20.00;;;14.75;;
22470;SDS011;11402;51.374;6.594;2023-04-01T09:45:14;21.77;;;15.70;;
22470;SDS011;11402;51.374;6.594;2023-04-01T09:50:52;20.45;;;15.10;;
22470;SDS011;11402;51.374;6.594;2023-04-01T09:57:14;23.05;;;16.85;;
22470;SDS011;11402;51.374;6.594;2023-04-01T10:02:27;23.95;;;15.75;;
22470;SDS011;11402;51.374;6.594;2023-04-01T10:08:14;24.73;;;16.15;;
22470;SDS011;11402;51.374;6.594;2023-04-01T10:11:02;20.67;;;15.07;;
22470;SDS011;11402;51.374;6.594;2023-04-01T10:13:42;26.63;;;15.40;;
22470;SDS011;11402;51.374;6.594;2023-04-01T10:19:33;25.67;;;16.20;;
22470;SDS011;11402;51.374;6.594;2023-04-01T10:22:25;25.05;;;16.00;;
22470;SDS011;11402;51.374;6.594;2023-04-01T10:30:27;24.77;;;17.25;;
22470;SDS011;11402;51.374;6.594;2023-04-01T10:33:38;25.52;;;17.10;;
22470;SDS011;11402;51.374;6.594;2023-04-01T10:41:49;24.45;;;17.70;;
22470;SDS011;11402;51.374;6.594;2023-04-01T10:58:42;25.98;;;17.40;;
22470;SDS011;11402;51.374;6.594;2023-04-01T11:13:00;25.40;;;17.55;;
22470;SDS011;11402;51.374;6.594;2023-04-01T11:15:53;25.08;;;17.33;;
22470;SDS011;11402;51.374;6.594;2023-04-01T11:18:27;27.13;;;20.73;;
22470;SDS011;11402;51.374;6.594;2023-04-01T11:23:45;25.55;;;19.50;;
22470;SDS011;11402;51.374;6.594;2023-04-01T11:31:44;23.73;;;16.92;;
22470;SDS011;11402;51.374;6.594;2023-04-01T11:46:20;20.52;;;14.95;;
22470;SDS011;11402;51.374;6.594;2023-04-01T11:49:02;19.40;;;13.77;;
22470;SDS011;11402;51.374;6.594;2023-04-01T11:51:45;17.65;;;13.35;;
22470;SDS011;11402;51.374;6.594;2023-04-01T11:57:30;17.45;;;11.90;;
22470;SDS011;11402;51.374;6.594;2023-04-01T12:03:42;16.48;;;12.55;;
22470;SDS011;11402;51.374;6.594;2023-04-01T12:06:23;17.08;;;11.98;;
22470;SDS011;11402;51.374;6.594;2023-04-01T12:09:04;21.55;;;14.43;;
22470;SDS011;11402;51.374;6.594;2023-04-01T12:16:46;18.40;;;13.85;;
22470;SDS011;11402;51.374;6.594;2023-04-01T12:19:35;21.90;;;14.02;;
22470;SDS011;11402;51.374;6.594;2023-04-01T12:22:23;19.27;;;14.83;;
22470;SDS011;11402;51.374;6.594;2023-04-01T12:27:27;20.92;;;14.73;;
22470;SDS011;11402;51.374;6.594;2023-04-01T12:32:43;19.92;;;13.85;;
22470;SDS011;11402;51.374;6.594;2023-04-01T12:35:21;17.45;;;13.10;;
22470;SDS011;11402;51.374;6.594;2023-04-01T12:40:51;18.20;;;13.00;;
22470;SDS011;11402;51.374;6.594;2023-04-01T12:46:26;18.45;;;13.18;;
22470;SDS011;11402;51.374;6.594;2023-04-01T12:49:12;17.02;;;12.90;;
22470;SDS011;11402;51.374;6.594;2023-04-01T12:51:48;14.60;;;11.50;;
22470;SDS011;11402;51.374;6.594;2023-04-01T12:57:44;17.42;;;12.10;;
22470;SDS011;11402;51.374;6.594;2023-04-01T13:00:27;16.73;;;12.77;;
22470;SDS011;11402;51.374;6.594;2023-04-01T13:06:31;18.02;;;12.43;;
22470;SDS011;11402;51.374;6.594;2023-04-01T13:09:26;16.02;;;11.55;;
22470;SDS011;11402;51.374;6.594;2023-04-01T13:12:23;15.35;;;11.77;;
22470;SDS011;11402;51.374;6.594;2023-04-01T13:28:56;14.13;;;10.65;;
22470;SDS011;11402;51.374;6.594;2023-04-01T13:31:34;16.48;;;10.73;;
22470;SDS011;11402;51.374;6.594;2023-04-01T13:36:55;15.35;;;11.52;;
22470;SDS011;11402;51.374;6.594;2023-04-01T13:39:42;16.35;;;11.70;;
22470;SDS011;11402;51.374;6.594;2023-04-01T13:42:26;13.05;;;11.18;;
22470;SDS011;11402;51.374;6.594;2023-04-01T13:48:11;14.75;;;10.55;;
22470;SDS011;11402;51.374;6.594;2023-04-01T13:50:55;14.57;;;10.20;;
22470;SDS011;11402;51.374;6.594;2023-04-01T14:05:09;9.65;;;8.65;;
22470;SDS011;11402;51.374;6.594;2023-04-01T14:08:20;10.93;;;8.40;;
22470;SDS011;11402;51.374;6.594;2023-04-01T14:10:50;9.05;;;7.78;;
22470;SDS011;11402;51.374;6.594;2023-04-01T14:13:28;11.88;;;8.57;;
22470;SDS011;11402;51.374;6.594;2023-04-01T14:18:51;12.18;;;9.70;;
22470;SDS011;11402;51.374;6.594;2023-04-01T14:21:43;8.45;;;7.07;;
22470;SDS011;11402;51.374;6.594;2023-04-01T14:24:36;9.18;;;6.68;;
22470;SDS011;11402;51.374;6.594;2023-04-01T14:30:23;8.40;;;6.65;;
22470;SDS011;11402;51.374;6.594;2023-04-01T14:33:13;9.63;;;6.82;;
22470;SDS011;11402;51.374;6.594;2023-04-01T14:36:29;8.20;;;6.72;;
22470;SDS011;11402;51.374;6.594;2023-04-01T14:42:39;6.37;;;5.30;;
22470;SDS011;11402;51.374;6.594;2023-04-01T14:47:48;8.38;;;6.85;;
22470;SDS011;11402;51.374;6.594;2023-04-01T14:50:20;9.32;;;8.25;;
22470;SDS011;11402;51.374;6.594;2023-04-01T15:03:30;10.75;;;7.55;;
22470;SDS011;11402;51.374;6.594;2023-04-01T15:14:04;7.60;;;6.65;;
22470;SDS011;11402;51.374;6.594;2023-04-01T15:19:45;6.70;;;5.95;;
22470;SDS011;11402;51.374;6.594;2023-04-01T15:33:42;9.23;;;5.78;;
22470;SDS011;11402;51.374;6.594;2023-04-01T15:39:19;6.15;;;5.55;;
22470;SDS011;11402;51.374;6.594;2023-04-01T15:47:45;7.18;;;5.65;;
22470;SDS011;11402;51.374;6.594;2023-04-01T15:55:43;7.57;;;6.70;;
22470;SDS011;11402;51.374;6.594;2023-04-01T16:03:59;7.65;;;6.85;;
22470;SDS011;11402;51.374;6.594;2023-04-01T16:07:02;7.93;;;6.85;;
22470;SDS011;11402;51.374;6.594;2023-04-01T16:15:55;7.80;;;6.57;;
22470;SDS011;11402;51.374;6.594;2023-04-01T16:21:07;8.07;;;6.85;;
22470;SDS011;11402;51.374;6.594;2023-04-01T16:23:49;8.52;;;7.30;;
22470;SDS011;11402;51.374;6.594;2023-04-01T16:26:38;8.50;;;6.78;;
22470;SDS011;11402;51.374;6.594;2023-04-01T16:34:21;7.28;;;6.57;;
22470;SDS011;11402;51.374;6.594;2023-04-01T16:37:09;8.30;;;6.97;;
22470;SDS011;11402;51.374;6.594;2023-04-01T16:45:32;9.07;;;7.65;;
22470;SDS011;11402;51.374;6.594;2023-04-01T16:48:28;7.82;;;6.65;;
22470;SDS011;11402;51.374;6.594;2023-04-01T16:51:14;10.18;;;7.70;;
22470;SDS011;11402;51.374;6.594;2023-04-01T16:53:43;9.00;;;7.97;;
22470;SDS011;11402;51.374;6.594;2023-04-01T16:56:16;10.65;;;8.50;;
22470;SDS011;11402;51.374;6.594;2023-04-01T17:01:40;8.35;;;7.45;;
22470;SDS011;11402;51.374;6.594;2023-04-01T17:04:26;9.32;;;7.70;;
22470;SDS011;11402;51.374;6.594;2023-04-01T17:23:21;11.15;;;8.98;;
22470;SDS011;11402;51.374;6.594;2023-04-01T17:26:03;10.23;;;8.30;;
22470;SDS011;11402;51.374;6.594;2023-04-01T17:28:55;9.55;;;8.07;;
22470;SDS011;11402;51.374;6.594;2023-04-01T17:48:24;10.93;;;9.82;;
22470;SDS011;11402;51.374;6.594;2023-04-01T18:02:02;12.77;;;11.15;;
22470;SDS011;11402;51.374;6.594;2023-04-01T18:05:12;13.90;;;11.40;;
22470;SDS011;11402;51.374;6.594;2023-04-01T18:08:01;13.20;;;11.75;;
22470;SDS011;11402;51.374;6.594;2023-04-01T18:13:25;14.15;;;12.38;;
22470;SDS011;11402;51.374;6.594;2023-04-01T18:21:47;14.05;;;12.50;;
22470;SDS011;11402;51.374;6.594;2023-04-01T18:24:42;14.75;;;13.07;;
22470;SDS011;11402;51.374;6.594;2023-04-01T18:27:16;15.55;;;12.93;;
22470;SDS011;11402;51.374;6.594;2023-04-01T18:30:01;17.52;;;13.77;;
22470;SDS011;11402;51.374;6.594;2023-04-01T18:38:25;17.35;;;13.77;;
22470;SDS011;11402;51.374;6.594;2023-04-01T18:41:12;17.02;;;13.35;;
22470;SDS011;11402;51.374;6.594;2023-04-01T18:44:04;17.00;;;13.85;;
22470;SDS011;11402;51.374;6.594;2023-04-01T18:46:54;19.00;;;14.40;;
22470;SDS011;11402;51.374;6.594;2023-04-01T18:52:33;18.73;;;14.50;;
22470;SDS011;11402;51.374;6.594;2023-04-01T18:55:22;21.25;;;16.05;;
22470;SDS011;11402;51.374;6.594;2023-04-01T19:03:43;19.38;;;15.88;;
22470;SDS011;11402;51.374;6.594;2023-04-01T19:06:22;18.20;;;15.23;;
22470;SDS011;11402;51.374;6.594;2023-04-01T19:08:52;17.60;;;15.57;;
22470;SDS011;11402;51.374;6.594;2023-04-01T19:11:33;18.55;;;14.88;;
22470;SDS011;11402;51.374;6.594;2023-04-01T19:20:31;16.55;;;12.75;;
22470;SDS011;11402;51.374;6.594;2023-04-01T19:23:13;13.70;;;11.88;;
22470;SDS011;11402;51.374;6.594;2023-04-01T19:25:55;14.30;;;12.57;;
22470;SDS011;11402;51.374;6.594;2023-04-01T19:28:34;10.05;;;8.32;;
22470;SDS011;11402;51.374;6.594;2023-04-01T19:34:54;12.43;;;10.98;;
22470;SDS011;11402;51.374;6.594;2023-04-01T19:39:27;10.13;;;8.85;;
22470;SDS011;11402;51.374;6.594;2023-04-01T19:42:11;8.57;;;7.78;;
22470;SDS011;11402;51.374;6.594;2023-04-01T19:44:59;7.93;;;6.75;;
22470;SDS011;11402;51.374;6.594;2023-04-01T19:47:47;7.05;;;6.30;;
22470;SDS011;11402;51.374;6.594;2023-04-01T19:53:10;6.10;;;5.40;;
22470;SDS011;11402;51.374;6.594;2023-04-01T19:55:50;5.80;;;5.30;;
22470;SDS011;11402;51.374;6.594;2023-04-01T20:01:23;6.55;;;5.07;;
22470;SDS011;11402;51.374;6.594;2023-04-01T20:03:54;6.22;;;5.63;;
22470;SDS011;11402;51.374;6.594;2023-04-01T20:06:37;5.70;;;5.20;;
22470;SDS011;11402;51.374;6.594;2023-04-01T20:12:11;5.15;;;4.65;;
22470;SDS011;11402;51.374;6.594;2023-04-01T20:14:46;4.32;;;3.92;;
22470;SDS011;11402;51.374;6.594;2023-04-01T20:17:26;4.10;;;3.70;;
22470;SDS011;11402;51.374;6.594;2023-04-01T20:25:15;5.85;;;5.22;;
22470;SDS011;11402;51.374;6.594;2023-04-01T20:41:37;6.55;;;5.00;;
22470;SDS011;11402;51.374;6.594;2023-04-01T20:57:11;6.88;;;6.22;;
22470;SDS011;11402;51.374;6.594;2023-04-01T21:00:03;6.93;;;6.22;;
22470;SDS011;11402;51.374;6.594;2023-04-01T21:05:41;6.68;;;5.97;;
22470;SDS011;11402;51.374;6.594;2023-04-01T21:08:36;8.38;;;6.32;;
22470;SDS011;11402;51.374;6.594;2023-04-01T21:14:05;8.05;;;6.28;;
22470;SDS011;11402;51.374;6.594;2023-04-01T21:16:44;7.10;;;6.40;;
22470;SDS011;11402;51.374;6.594;2023-04-01T21:22:22;7.65;;;6.85;;
22470;SDS011;11402;51.374;6.594;2023-04-01T21:27:36;8.25;;;7.13;;
22470;SDS011;11402;51.374;6.594;2023-04-01T21:32:58;5.50;;;4.80;;
22470;SDS011;11402;51.374;6.594;2023-04-01T21:35:43;5.75;;;4.95;;
22470;SDS011;11402;51.374;6.594;2023-04-01T21:41:14;5.63;;;4.95;;
22470;SDS011;11402;51.374;6.594;2023-04-01T21:44:05;5.50;;;4.95;;
22470;SDS011;11402;51.374;6.594;2023-04-01T21:46:47;5.07;;;4.57;;
22470;SDS011;11402;51.374;6.594;2023-04-01T21:52:25;5.78;;;5.18;;
22470;SDS011;11402;51.374;6.594;2023-04-01T21:58:04;4.88;;;4.38;;
22470;SDS011;11402;51.374;6.594;2023-04-01T22:06:46;5.22;;;3.83;;
22470;SDS011;11402;51.374;6.594;2023-04-01T22:09:25;4.93;;;4.13;;
22470;SDS011;11402;51.374;6.594;2023-04-01T22:12:08;4.70;;;4.20;;
22470;SDS011;11402;51.374;6.594;2023-04-01T22:17:23;5.95;;;5.35;;
22470;SDS011;11402;51.374;6.594;2023-04-01T22:19:59;4.95;;;3.63;;
22470;SDS011;11402;51.374;6.594;2023-04-01T22:23:01;5.72;;;5.10;;
22470;SDS011;11402;51.374;6.594;2023-04-01T22:28:30;6.68;;;5.97;;
22470;SDS011;11402;51.374;6.594;2023-04-01T22:31:07;5.88;;;5.30;;
22470;SDS011;11402;51.374;6.594;2023-04-01T22:33:42;7.63;;;6.20;;
22470;SDS011;11402;51.374;6.594;2023-04-01T22:39:02;6.35;;;5.70;;
22470;SDS011;11402;51.374;6.594;2023-04-01T22:41:39;7.85;;;6.38;;
22470;SDS011;11402;51.374;6.594;2023-04-01T22:49:44;10.00;;;8.13;;
22470;SDS011;11402;51.374;6.594;2023-04-01T22:52:37;10.75;;;8.88;;
22470;SDS011;11402;51.374;6.594;2023-04-01T23:00:23;7.68;;;6.50;;
22470;SDS011;11402;51.374;6.594;2023-04-01T23:05:29;7.45;;;5.78;;
22470;SDS011;11402;51.374;6.594;2023-04-01T23:10:39;7.80;;;5.43;;
22470;SDS011;11402;51.374;6.594;2023-04-01T23:13:10;6.57;;;5.88;;
22470;SDS011;11402;51.374;6.594;2023-04-01T23:15:45;9.43;;;6.93;;
22470;SDS011;11402;51.374;6.594;2023-04-01T23:18:35;9.65;;;7.63;;
22470;SDS011;11402;51.374;6.594;2023-04-01T23:26:13;8.50;;;7.32;;
22470;SDS011;11402;51.374;6.594;2023-04-01T23:28:51;7.93;;;5.75;;
22470;SDS011;11402;51.374;6.594;2023-04-01T23:31:38;9.02;;;7.20;;
22470;SDS011;11402;51.374;6.594;2023-04-01T23:36:39;5.95;;;5.35;;
22470;SDS011;11402;51.374;6.594;2023-04-01T23:39:23;5.18;;;4.55;;
22470;SDS011;11402;51.374;6.594;2023-04-01T23:42:00;6.75;;;5.70;;
22470;SDS011;11402;51.374;6.594;2023-04-01T23:44:32;6.00;;;5.35;;
22470;SDS011;11402;51.374;6.594;2023-04-01T23:46:58;5.75;;;4.72;;
22470;SDS011;11402;51.374;6.594;2023-04-01T23:50:11;7.93;;;6.05;;
22470;SDS011;11402;51.374;6.594;2023-04-01T23:52:26;7.43;;;6.05;;
22470;SDS011;11402;51.374;6.594;2023-04-01T23:54:56;9.15;;;7.53;;
22470;SDS011;11402;51.374;6.594;2023-04-01T23:57:29;9.05;;;7.50;;
